createdAt,value
2023-04-20T00:01:29.568Z,7.07
2023-04-20T00:03:51.955Z,6.57
2023-04-20T00:06:15.582Z,7.30
2023-04-20T00:08:36.866Z,7.40
2023-04-20T00:10:58.281Z,7.13
2023-04-20T00:13:19.663Z,6.57
2023-04-20T00:15:40.884Z,6.80
2023-04-20T00:18:02.223Z,6.77
2023-04-20T00:20:23.485Z,6.60
2023-04-20T00:22:46.024Z,6.90
2023-04-20T00:25:07.912Z,7.90
2023-04-20T00:27:29.450Z,8.03
2023-04-20T00:29:50.678Z,8.10
2023-04-20T00:32:12.145Z,8.30
2023-04-20T00:34:33.452Z,8.67
2023-04-20T00:36:54.854Z,8.77
2023-04-20T00:39:17.462Z,8.40
2023-04-20T00:41:39.201Z,7.93
2023-04-20T00:44:00.720Z,7.13
2023-04-20T00:46:22.276Z,7.50
2023-04-20T00:48:43.909Z,8.07
2023-04-20T00:51:05.080Z,7.90
2023-04-20T00:53:26.033Z,8.33
2023-04-20T00:55:48.804Z,7.70
2023-04-20T00:58:09.887Z,7.83
2023-04-20T01:00:31.344Z,7.33
2023-04-20T01:02:52.806Z,7.70
2023-04-20T01:05:14.384Z,7.60
2023-04-20T01:07:36.744Z,7.27
2023-04-20T01:09:58.176Z,6.83
2023-04-20T01:12:20.857Z,7.10
2023-04-20T01:14:42.061Z,6.80
2023-04-20T01:17:04.583Z,7.73
2023-04-20T01:19:26.691Z,8.20
2023-04-20T01:21:48.026Z,7.87
2023-04-20T01:24:10.536Z,9.00
2023-04-20T01:26:31.445Z,8.53
2023-04-20T01:28:52.897Z,8.03
2023-04-20T01:31:14.464Z,8.60
2023-04-20T01:33:36.320Z,7.73
2023-04-20T01:35:57.786Z,8.57
2023-04-20T01:38:19.148Z,7.70
2023-04-20T01:40:41.708Z,8.60
2023-04-20T01:43:03.140Z,8.10
2023-04-20T01:45:24.479Z,7.77
2023-04-20T01:47:45.884Z,7.73
2023-04-20T01:50:07.349Z,8.70
2023-04-20T01:52:28.361Z,8.60
2023-04-20T01:54:49.749Z,8.07
2023-04-20T01:57:12.365Z,8.10
2023-04-20T01:59:33.621Z,8.63
2023-04-20T02:01:54.920Z,7.90
2023-04-20T02:04:16.252Z,7.93
2023-04-20T02:06:37.532Z,8.37
2023-04-20T02:09:11.356Z,8.23
2023-04-20T02:11:32.398Z,8.43
2023-04-20T02:13:55.025Z,9.10
2023-04-20T02:16:16.232Z,8.53
2023-04-20T02:18:37.511Z,9.03
2023-04-20T02:20:58.742Z,8.43
2023-04-20T02:23:20.056Z,8.43
2023-04-20T02:25:41.296Z,8.43
2023-04-20T02:28:02.601Z,8.57
2023-04-20T02:30:25.402Z,8.77
2023-04-20T02:32:46.739Z,8.50
2023-04-20T02:35:08.874Z,8.87
2023-04-20T02:37:30.047Z,9.87
2023-04-20T02:39:51.161Z,9.63
2023-04-20T02:42:12.287Z,9.13
2023-04-20T02:44:33.555Z,8.90
2023-04-20T02:46:56.311Z,8.30
2023-04-20T02:49:17.697Z,8.50
2023-04-20T02:51:39.330Z,8.60
2023-04-20T02:54:00.483Z,8.93
2023-04-20T02:56:21.642Z,9.03
2023-04-20T02:58:42.856Z,9.23
2023-04-20T03:01:04.059Z,8.80
2023-04-20T03:03:27.496Z,8.53
2023-04-20T03:05:48.783Z,8.97
2023-04-20T03:08:10.101Z,8.77
2023-04-20T03:10:31.499Z,9.03
2023-04-20T03:12:52.988Z,8.60
2023-04-20T03:15:15.675Z,8.80
2023-04-20T03:17:36.940Z,9.10
2023-04-20T03:19:59.631Z,9.10
2023-04-20T03:22:21.024Z,9.07
2023-04-20T03:24:42.289Z,9.00
2023-04-20T03:27:03.603Z,8.80
2023-04-20T03:29:24.839Z,8.43
2023-04-20T03:31:46.470Z,8.73
2023-04-20T03:34:08.058Z,8.90
2023-04-20T03:36:30.551Z,9.17
2023-04-20T03:38:51.882Z,9.57
2023-04-20T03:41:13.372Z,10.33
2023-04-20T03:43:34.883Z,9.97
2023-04-20T03:45:56.592Z,9.50
2023-04-20T03:48:17.825Z,8.80
2023-04-20T03:50:39.527Z,9.03
2023-04-20T03:53:02.194Z,9.70
2023-04-20T03:55:23.402Z,8.97
2023-04-20T03:57:44.776Z,10.17
2023-04-20T04:00:06.627Z,9.50
2023-04-20T04:02:28.782Z,9.23
2023-04-20T04:04:50.325Z,9.60
2023-04-20T04:07:11.467Z,9.50
2023-04-20T04:09:34.068Z,9.60
2023-04-20T04:11:54.982Z,9.97
2023-04-20T04:14:16.513Z,9.93
2023-04-20T04:16:37.905Z,8.93
2023-04-20T04:18:59.413Z,9.80
2023-04-20T04:21:21.168Z,10.13
2023-04-20T04:23:43.260Z,10.00
2023-04-20T04:26:06.052Z,9.90
2023-04-20T04:28:27.517Z,9.53
2023-04-20T04:30:48.877Z,9.23
2023-04-20T04:33:11.787Z,10.50
2023-04-20T04:35:34.515Z,10.07
2023-04-20T04:37:55.740Z,9.93
2023-04-20T04:40:18.312Z,10.23
2023-04-20T04:42:40.816Z,11.30
2023-04-20T04:45:04.565Z,10.63
2023-04-20T04:47:25.756Z,9.90
2023-04-20T04:49:48.005Z,11.20
2023-04-20T04:52:10.642Z,10.93
2023-04-20T04:54:31.712Z,12.43
2023-04-20T04:56:52.986Z,13.30
2023-04-20T04:59:15.796Z,11.73
2023-04-20T05:01:37.000Z,11.90
2023-04-20T05:03:58.450Z,12.13
2023-04-20T05:06:20.047Z,11.50
2023-04-20T05:08:41.499Z,11.20
2023-04-20T05:11:02.664Z,10.90
2023-04-20T05:13:23.953Z,11.00
2023-04-20T05:15:46.562Z,12.73
2023-04-20T05:18:08.560Z,12.87
2023-04-20T05:20:29.889Z,12.53
2023-04-20T05:22:51.120Z,11.73
2023-04-20T05:25:14.001Z,11.47
2023-04-20T05:27:35.551Z,12.07
2023-04-20T05:29:58.420Z,13.70
2023-04-20T05:32:26.477Z,13.70
2023-04-20T05:34:47.825Z,12.50
2023-04-20T05:37:09.416Z,12.40
2023-04-20T05:39:30.506Z,12.17
2023-04-20T05:41:52.034Z,12.50
2023-04-20T05:44:13.187Z,11.40
2023-04-20T05:46:34.167Z,11.33
2023-04-20T05:48:56.976Z,11.13
2023-04-20T05:51:18.184Z,11.23
2023-04-20T05:53:39.513Z,11.07
2023-04-20T05:56:00.744Z,11.77
2023-04-20T05:58:22.067Z,12.07
2023-04-20T06:00:43.450Z,11.30
2023-04-20T06:03:05.125Z,11.80
2023-04-20T06:05:27.995Z,12.53
2023-04-20T06:07:49.376Z,12.30
2023-04-20T06:10:10.764Z,12.17
2023-04-20T06:12:31.998Z,12.27
2023-04-20T06:14:53.248Z,12.10
2023-04-20T06:17:14.589Z,10.77
2023-04-20T06:19:36.027Z,10.47
2023-04-20T06:22:00.985Z,11.10
2023-04-20T06:24:22.409Z,10.67
2023-04-20T06:26:43.635Z,10.27
2023-04-20T06:29:04.854Z,10.90
2023-04-20T06:31:26.106Z,10.63
2023-04-20T06:33:47.750Z,11.33
2023-04-20T06:36:09.089Z,11.20
2023-04-20T06:38:31.801Z,10.63
2023-04-20T06:40:53.063Z,10.30
2023-04-20T06:43:14.277Z,10.63
2023-04-20T06:45:35.636Z,10.30
2023-04-20T06:47:56.981Z,10.20
2023-04-20T06:50:18.310Z,10.33
2023-04-20T06:52:40.929Z,10.43
2023-04-20T06:55:03.368Z,10.07
2023-04-20T06:57:24.800Z,10.50
2023-04-20T06:59:46.176Z,10.37
2023-04-20T07:02:07.752Z,10.93
2023-04-20T07:04:29.420Z,10.00
2023-04-20T07:06:53.822Z,10.20
2023-04-20T07:09:15.545Z,10.00
2023-04-20T07:11:38.096Z,9.80
2023-04-20T07:13:59.547Z,10.03
2023-04-20T07:16:20.976Z,9.63
2023-04-20T07:18:42.224Z,9.13
2023-04-20T07:21:03.552Z,10.27
2023-04-20T07:23:24.903Z,9.73
2023-04-20T07:25:46.155Z,9.57
2023-04-20T07:28:08.795Z,9.43
2023-04-20T07:30:31.280Z,9.93
2023-04-20T07:32:52.421Z,9.47
2023-04-20T07:35:13.580Z,10.73
2023-04-20T07:37:35.039Z,9.53
2023-04-20T07:39:56.331Z,10.60
2023-04-20T07:42:17.698Z,10.30
2023-04-20T07:44:40.383Z,9.90
2023-04-20T07:47:02.929Z,9.47
2023-04-20T07:49:24.072Z,9.83
2023-04-20T07:51:45.435Z,9.50
2023-04-20T07:54:07.029Z,8.77
2023-04-20T07:56:28.531Z,9.57
2023-04-20T07:58:49.850Z,9.17
2023-04-20T08:01:12.641Z,8.37
2023-04-20T08:03:35.357Z,9.07
2023-04-20T08:05:56.949Z,9.50
2023-04-20T08:08:18.211Z,9.80
2023-04-20T08:10:39.155Z,10.23
2023-04-20T08:13:00.566Z,9.77
2023-04-20T08:15:21.457Z,10.60
2023-04-20T08:17:44.150Z,9.83
2023-04-20T08:20:06.277Z,10.13
2023-04-20T08:22:30.047Z,10.37
2023-04-20T08:24:51.643Z,10.17
2023-04-20T08:27:12.754Z,11.27
2023-04-20T08:29:34.061Z,10.60
2023-04-20T08:31:55.685Z,11.33
2023-04-20T08:34:18.232Z,11.40
2023-04-20T08:36:39.560Z,11.80
2023-04-20T08:39:07.640Z,10.90
2023-04-20T08:41:28.598Z,11.10
2023-04-20T08:43:51.334Z,10.93
2023-04-20T08:46:14.002Z,11.20
2023-04-20T08:48:36.390Z,11.07
2023-04-20T08:50:59.136Z,11.50
2023-04-20T08:53:20.258Z,10.47
2023-04-20T08:55:41.480Z,11.40
2023-04-20T08:58:02.696Z,11.07
2023-04-20T09:00:24.158Z,10.50
2023-04-20T09:02:52.047Z,10.53
2023-04-20T09:05:13.452Z,10.73
2023-04-20T09:07:36.213Z,10.43
2023-04-20T09:09:57.946Z,10.30
2023-04-20T09:12:21.089Z,10.47
2023-04-20T09:14:44.358Z,10.20
2023-04-20T09:17:05.373Z,10.47
2023-04-20T09:19:27.069Z,10.57
2023-04-20T09:21:49.784Z,9.50
2023-04-20T09:24:12.525Z,10.37
2023-04-20T09:26:34.966Z,10.63
2023-04-20T09:28:56.192Z,10.40
2023-04-20T09:31:21.468Z,10.57
2023-04-20T09:33:43.079Z,9.80
2023-04-20T09:36:04.942Z,10.03
2023-04-20T09:38:27.794Z,10.20
2023-04-20T09:40:51.213Z,9.80
2023-04-20T09:43:18.910Z,9.17
2023-04-20T09:45:40.767Z,9.30
2023-04-20T09:48:05.385Z,9.97
2023-04-20T09:50:38.277Z,9.67
2023-04-20T09:53:07.154Z,10.60
2023-04-20T09:55:28.817Z,11.27
2023-04-20T09:57:51.084Z,11.40
2023-04-20T10:00:14.371Z,10.30
2023-04-20T10:02:35.829Z,11.63
2023-04-20T10:04:57.940Z,11.37
2023-04-20T10:07:24.536Z,11.23
2023-04-20T10:09:46.426Z,11.83
2023-04-20T10:12:07.866Z,11.03
2023-04-20T10:14:29.184Z,11.97
2023-04-20T10:17:01.234Z,11.23
2023-04-20T10:19:22.404Z,11.83
2023-04-20T10:21:47.367Z,11.80
2023-04-20T10:24:08.448Z,10.70
2023-04-20T10:26:38.210Z,11.40
2023-04-20T10:28:59.101Z,10.67
2023-04-20T10:31:22.012Z,10.00
2023-04-20T10:33:51.348Z,10.40
2023-04-20T10:36:23.398Z,9.80
2023-04-20T10:38:44.700Z,9.90
2023-04-20T10:41:09.193Z,11.27
2023-04-20T10:43:30.327Z,10.17
2023-04-20T10:45:52.024Z,10.33
2023-04-20T10:48:14.508Z,9.50
2023-04-20T10:50:38.535Z,9.87
2023-04-20T10:52:59.693Z,10.27
2023-04-20T10:55:21.780Z,10.20
2023-04-20T10:57:45.913Z,10.60
2023-04-20T11:00:16.677Z,9.67
2023-04-20T11:02:46.623Z,9.97
2023-04-20T11:05:12.561Z,11.40
2023-04-20T11:07:35.305Z,10.93
2023-04-20T11:09:57.600Z,11.40
2023-04-20T11:12:18.895Z,10.87
2023-04-20T11:14:51.331Z,10.63
2023-04-20T11:17:12.686Z,11.43
2023-04-20T11:19:35.245Z,10.70
2023-04-20T11:21:56.741Z,10.53
2023-04-20T11:24:23.193Z,10.50
2023-04-20T11:26:44.254Z,11.30
2023-04-20T11:29:05.551Z,11.00
2023-04-20T11:31:28.089Z,10.40
2023-04-20T11:33:49.542Z,10.37
2023-04-20T11:36:19.190Z,9.70
2023-04-20T11:38:40.278Z,8.80
2023-04-20T11:41:06.811Z,8.83
2023-04-20T11:43:28.093Z,8.77
2023-04-20T11:45:49.313Z,9.50
2023-04-20T11:48:10.750Z,9.00
2023-04-20T11:50:32.222Z,8.70
2023-04-20T11:52:53.696Z,9.70
2023-04-20T11:55:15.249Z,9.23
2023-04-20T11:57:38.006Z,8.73
2023-04-20T11:59:59.396Z,8.97
2023-04-20T12:02:20.680Z,9.27
2023-04-20T12:04:42.190Z,9.00
2023-04-20T12:07:04.045Z,8.70
2023-04-20T12:09:25.401Z,8.80
2023-04-20T12:11:46.648Z,8.93
2023-04-20T12:14:09.299Z,9.70
2023-04-20T12:16:30.608Z,10.03
2023-04-20T12:18:51.720Z,9.17
2023-04-20T12:21:12.861Z,9.13
2023-04-20T12:23:34.191Z,9.17
2023-04-20T12:25:55.429Z,9.27
2023-04-20T12:28:16.508Z,8.57
2023-04-20T12:30:39.274Z,8.93
2023-04-20T12:33:00.548Z,9.30
2023-04-20T12:35:21.869Z,9.17
2023-04-20T12:37:42.959Z,9.17
2023-04-20T12:40:06.393Z,9.13
2023-04-20T12:42:27.855Z,9.67
2023-04-20T12:44:48.978Z,10.07
2023-04-20T12:47:13.615Z,9.27
2023-04-20T12:49:34.713Z,9.53
2023-04-20T12:51:55.902Z,9.77
2023-04-20T12:54:17.724Z,10.07
2023-04-20T12:56:38.975Z,9.67
2023-04-20T12:59:00.233Z,10.37
2023-04-20T13:01:21.616Z,10.00
2023-04-20T13:03:44.363Z,11.33
2023-04-20T13:06:06.093Z,10.00
2023-04-20T13:08:27.465Z,10.87
2023-04-20T13:10:48.888Z,11.07
2023-04-20T13:13:11.619Z,11.53
2023-04-20T13:17:59.091Z,11.13
2023-04-20T13:20:21.583Z,10.70
2023-04-20T13:22:54.491Z,10.57
2023-04-20T13:25:18.924Z,10.33
2023-04-20T13:27:40.118Z,9.80
2023-04-20T13:30:01.555Z,8.77
2023-04-20T13:32:22.917Z,8.77
2023-04-20T13:34:44.197Z,8.23
2023-04-20T13:37:07.066Z,8.57
2023-04-20T13:39:28.351Z,9.03
2023-04-20T13:41:49.971Z,7.80
2023-04-20T13:44:15.956Z,8.30
2023-04-20T13:46:37.478Z,8.90
2023-04-20T13:48:58.645Z,8.13
2023-04-20T13:51:20.418Z,8.27
2023-04-20T13:53:43.119Z,8.33
2023-04-20T13:56:05.010Z,8.13
2023-04-20T13:58:28.381Z,8.07
2023-04-20T14:00:49.708Z,7.80
2023-04-20T14:03:11.805Z,7.30
2023-04-20T14:05:32.939Z,7.90
2023-04-20T14:07:54.096Z,7.97
2023-04-20T14:10:16.730Z,8.20
2023-04-20T14:12:37.896Z,7.73
2023-04-20T14:14:59.441Z,9.07
2023-04-20T14:17:20.408Z,8.23
2023-04-20T14:19:41.800Z,8.83
2023-04-20T14:22:03.002Z,9.40
2023-04-20T14:24:24.139Z,9.57
2023-04-20T14:26:46.787Z,9.63
2023-04-20T14:29:07.991Z,10.00
2023-04-20T14:31:29.525Z,10.53
2023-04-20T14:33:51.594Z,10.70
2023-04-20T14:36:12.952Z,9.77
2023-04-20T14:38:34.295Z,10.30
2023-04-20T14:40:55.530Z,10.30
2023-04-20T14:43:18.044Z,11.07
2023-04-20T14:45:41.553Z,10.23
2023-04-20T14:48:03.084Z,10.70
2023-04-20T14:50:27.248Z,10.97
2023-04-20T14:52:48.532Z,10.87
2023-04-20T14:55:10.297Z,10.73
2023-04-20T14:57:32.092Z,10.03
2023-04-20T14:59:54.454Z,9.97
2023-04-20T15:02:15.833Z,10.17
2023-04-20T15:04:37.405Z,11.43
2023-04-20T15:06:58.610Z,11.17
2023-04-20T15:09:19.966Z,11.03
2023-04-20T15:11:41.399Z,11.07
2023-04-20T15:14:02.654Z,11.40
2023-04-20T15:16:25.263Z,10.93
2023-04-20T15:18:46.621Z,10.90
2023-04-20T15:21:08.403Z,11.20
2023-04-20T15:23:29.609Z,11.37
2023-04-20T15:25:50.722Z,11.20
2023-04-20T15:28:12.231Z,10.73
2023-04-20T15:30:33.336Z,11.17
2023-04-20T15:32:56.019Z,10.53
2023-04-20T15:35:26.423Z,11.23
2023-04-20T15:37:47.666Z,11.03
2023-04-20T15:40:09.389Z,10.93
2023-04-20T15:42:30.447Z,10.80
2023-04-20T15:44:51.854Z,11.43
2023-04-20T15:47:13.132Z,11.43
2023-04-20T15:49:40.477Z,10.57
2023-04-20T15:52:01.763Z,10.30
2023-04-20T15:54:23.769Z,11.53
2023-04-20T15:56:45.146Z,10.33
2023-04-20T15:59:06.401Z,11.13
2023-04-20T16:01:27.782Z,11.27
2023-04-20T16:03:49.961Z,14.80
2023-04-20T16:06:12.896Z,12.60
2023-04-20T16:08:34.204Z,13.43
2023-04-20T16:10:55.965Z,12.30
2023-04-20T16:13:17.355Z,12.10
2023-04-20T16:15:39.946Z,12.27
2023-04-20T16:18:01.091Z,12.87
2023-04-20T16:20:22.806Z,12.57
2023-04-20T16:22:45.383Z,12.37
2023-04-20T16:25:07.437Z,11.43
2023-04-20T16:27:28.625Z,11.70
2023-04-20T16:29:49.809Z,11.37
2023-04-20T16:32:11.836Z,11.87
2023-04-20T16:34:32.905Z,12.00
2023-04-20T16:36:54.348Z,11.13
2023-04-20T16:39:17.780Z,11.03
2023-04-20T16:41:38.804Z,11.47
2023-04-20T16:44:00.245Z,11.00
2023-04-20T16:46:22.397Z,11.27
2023-04-20T16:48:44.140Z,11.20
2023-04-20T16:51:05.430Z,11.63
2023-04-20T16:53:26.783Z,11.87
2023-04-20T16:55:49.214Z,11.80
2023-04-20T16:58:10.559Z,13.47
2023-04-20T17:00:32.405Z,16.37
2023-04-20T17:02:53.700Z,13.70
2023-04-20T17:05:14.802Z,12.20
2023-04-20T17:07:36.435Z,12.17
2023-04-20T17:09:57.776Z,11.83
2023-04-20T17:12:20.276Z,12.97
2023-04-20T17:14:42.237Z,12.80
2023-04-20T17:17:03.965Z,14.23
2023-04-20T17:19:25.342Z,13.17
2023-04-20T17:21:47.292Z,13.20
2023-04-20T17:24:08.594Z,13.10
2023-04-20T17:26:30.198Z,13.67
2023-04-20T17:28:53.636Z,14.00
2023-04-20T17:31:14.693Z,13.23
2023-04-20T17:33:36.321Z,13.60
2023-04-20T17:35:57.495Z,12.43
2023-04-20T17:38:18.632Z,13.07
2023-04-20T17:40:39.816Z,13.23
2023-04-20T17:43:01.091Z,11.87
2023-04-20T17:45:24.011Z,12.43
2023-04-20T17:47:45.258Z,11.37
2023-04-20T17:50:07.106Z,11.70
2023-04-20T17:52:28.218Z,12.13
2023-04-20T17:54:49.457Z,11.53
2023-04-20T17:57:10.854Z,11.07
2023-04-20T17:59:32.189Z,10.93
2023-04-20T18:01:54.935Z,11.63
2023-04-20T18:04:16.471Z,11.90
2023-04-20T18:06:37.854Z,11.67
2023-04-20T18:08:59.645Z,11.63
2023-04-20T18:11:21.629Z,11.43
2023-04-20T18:13:42.868Z,11.47
2023-04-20T18:16:07.320Z,11.77
2023-04-20T18:18:29.913Z,11.80
2023-04-20T18:20:51.220Z,12.40
2023-04-20T18:23:13.682Z,12.40
2023-04-20T18:25:35.053Z,12.23
2023-04-20T18:27:56.438Z,11.80
2023-04-20T18:30:19.033Z,12.33
2023-04-20T18:32:40.360Z,13.33
2023-04-20T18:35:03.896Z,13.87
2023-04-20T18:37:25.303Z,14.47
2023-04-20T18:39:46.764Z,15.17
2023-04-20T18:42:07.724Z,15.50
2023-04-20T18:44:29.213Z,15.87
2023-04-20T18:46:50.489Z,13.70
2023-04-20T18:49:11.762Z,14.10
2023-04-20T18:51:34.491Z,13.80
2023-04-20T18:53:55.891Z,13.90
2023-04-20T18:56:17.164Z,14.67
2023-04-20T18:58:38.664Z,15.13
2023-04-20T19:01:01.321Z,15.03
2023-04-20T19:03:22.753Z,14.50
2023-04-20T19:05:43.969Z,15.27
2023-04-20T19:08:06.835Z,14.57
2023-04-20T19:10:28.693Z,15.97
2023-04-20T19:12:49.804Z,15.70
2023-04-20T19:15:11.627Z,15.63
2023-04-20T19:17:32.862Z,15.63
2023-04-20T19:19:55.229Z,15.80
2023-04-20T19:22:16.271Z,16.57
2023-04-20T19:24:38.988Z,16.57
2023-04-20T19:27:00.828Z,16.27
2023-04-20T19:29:21.877Z,15.23
2023-04-20T19:31:43.349Z,17.83
2023-04-20T19:34:05.099Z,17.87
2023-04-20T19:36:26.639Z,16.83
2023-04-20T19:38:48.151Z,17.77
2023-04-20T19:41:11.001Z,18.87
2023-04-20T19:43:32.546Z,19.40
2023-04-20T19:45:54.323Z,20.13
2023-04-20T19:48:15.758Z,18.50
2023-04-20T19:50:37.000Z,18.30
2023-04-20T19:52:58.775Z,17.90
2023-04-20T19:55:20.011Z,17.60
2023-04-20T19:57:42.831Z,19.43
2023-04-20T20:00:05.592Z,19.50
2023-04-20T20:02:26.750Z,18.80
2023-04-20T20:04:49.625Z,17.80
2023-04-20T20:07:11.203Z,18.63
2023-04-20T20:09:32.731Z,19.13
2023-04-20T20:11:54.229Z,17.43
2023-04-20T20:14:17.188Z,18.30
2023-04-20T20:16:38.591Z,18.53
2023-04-20T20:18:59.776Z,18.10
2023-04-20T20:21:21.491Z,19.20
2023-04-20T20:23:42.530Z,19.40
2023-04-20T20:26:03.792Z,18.40
2023-04-20T20:28:25.080Z,19.93
2023-04-20T20:30:47.985Z,19.97
2023-04-20T20:33:09.528Z,18.63
2023-04-20T20:35:33.077Z,17.57
2023-04-20T20:37:54.764Z,17.50
2023-04-20T20:40:15.969Z,17.20
2023-04-20T20:42:38.820Z,17.33
2023-04-20T20:45:00.365Z,17.63
2023-04-20T20:47:23.251Z,18.10
2023-04-20T20:49:44.369Z,17.50
2023-04-20T20:52:07.238Z,17.10
2023-04-20T20:54:29.097Z,16.77
2023-04-20T20:56:50.553Z,18.10
2023-04-20T20:59:12.044Z,18.93
2023-04-20T21:01:33.406Z,17.40
2023-04-20T21:03:56.164Z,18.57
2023-04-20T21:06:17.389Z,19.57
2023-04-20T21:08:38.454Z,18.37
2023-04-20T21:10:59.662Z,17.53
2023-04-20T21:13:21.939Z,18.13
2023-04-20T21:15:43.267Z,17.50
2023-04-20T21:18:04.655Z,18.87
2023-04-20T21:20:27.338Z,18.87
2023-04-20T21:22:48.277Z,20.13
2023-04-20T21:25:10.197Z,20.10
2023-04-20T21:27:31.295Z,20.10
2023-04-20T21:29:52.521Z,19.90
2023-04-20T21:32:13.841Z,20.53
2023-04-20T21:34:35.021Z,20.47
2023-04-20T21:37:03.430Z,20.33
2023-04-20T21:39:24.670Z,21.10
2023-04-20T21:41:46.083Z,21.27
2023-04-20T21:44:07.259Z,20.53
2023-04-20T21:46:28.534Z,20.37
2023-04-20T21:48:49.693Z,17.80
2023-04-20T21:51:15.246Z,20.60
2023-04-20T21:53:38.079Z,19.70
2023-04-20T21:55:59.528Z,18.87
2023-04-20T21:58:20.713Z,17.90
2023-04-20T22:00:42.069Z,18.87
2023-04-20T22:03:03.535Z,17.50
2023-04-20T22:05:24.810Z,18.07
2023-04-20T22:07:46.941Z,17.50
2023-04-20T22:10:09.890Z,16.50
2023-04-20T22:12:39.413Z,19.10
2023-04-20T22:15:01.066Z,18.43
2023-04-20T22:17:23.703Z,17.27
2023-04-20T22:19:45.270Z,17.37
2023-04-20T22:22:06.750Z,16.73
2023-04-20T22:24:28.079Z,18.73
2023-04-20T22:26:50.795Z,18.93
2023-04-20T22:29:11.981Z,19.20
2023-04-20T22:31:33.321Z,19.23
2023-04-20T22:33:54.272Z,20.13
2023-04-20T22:36:15.627Z,20.10
2023-04-20T22:38:36.950Z,19.13
2023-04-20T22:40:58.188Z,19.63
2023-04-20T22:43:21.407Z,18.43
2023-04-20T22:45:42.429Z,18.40
2023-04-20T22:48:03.798Z,18.33
2023-04-20T22:50:25.217Z,19.30
2023-04-20T22:52:46.502Z,19.40
2023-04-20T22:55:08.827Z,21.40
2023-04-20T22:57:30.216Z,21.73
2023-04-20T22:59:52.824Z,23.83
2023-04-20T23:02:14.130Z,20.17
2023-04-20T23:04:37.882Z,20.27
2023-04-20T23:06:58.982Z,22.67
2023-04-20T23:09:20.795Z,25.30
2023-04-20T23:11:43.474Z,22.27
2023-04-20T23:14:05.055Z,23.57
2023-04-20T23:16:28.105Z,21.60
2023-04-20T23:18:49.365Z,22.53
2023-04-20T23:21:10.643Z,22.47
2023-04-20T23:23:32.126Z,22.87
2023-04-20T23:25:53.347Z,20.73
2023-04-20T23:28:14.815Z,20.47
2023-04-20T23:30:36.467Z,21.13
2023-04-20T23:32:59.034Z,19.63
2023-04-20T23:35:20.371Z,19.80
2023-04-20T23:37:41.600Z,20.23
2023-04-20T23:40:06.697Z,19.90
2023-04-20T23:42:27.937Z,21.93
2023-04-20T23:44:49.470Z,23.33
2023-04-20T23:47:10.834Z,22.40
2023-04-20T23:49:33.505Z,21.80
2023-04-20T23:51:54.748Z,21.87
2023-04-20T23:54:16.578Z,22.20
2023-04-20T23:56:38.576Z,22.37
2023-04-20T23:59:00.109Z,22.23
